Time;durP1;ratioP1;P1;durP2;ratioP2;P2;SDS_P1;SDS_P2;PMS_P1;PMS_P2;Temp;Humidity;BMP_temperature;BMP_pressure;BME280_temperature;BME280_humidity;BME280_pressure;Samples;Min_cycle;Max_cycle;Signal;HPM_P1;HPM_P2
2022/01/19 00:00:58;;;;;;;24.58;10.85;;;;;;;1.24;100.00;103240.16;4996710;28;20033;-69
2022/01/19 00:03:24;;;;;;;25.42;10.27;;;;;;;1.14;100.00;103238.38;4998540;28;20439;-69
2022/01/19 00:05:50;;;;;;;62.53;12.15;;;;;;;1.11;100.00;103239.28;5007392;28;20033;-69
2022/01/19 00:08:19;;;;;;;49.50;11.50;;;;;;;1.02;100.00;103242.81;5003170;28;20038;-69
2022/01/19 00:10:44;;;;;;;31.75;11.02;;;;;;;0.97;100.00;103236.63;5001860;28;20442;-69
2022/01/19 00:13:10;;;;;;;30.23;10.98;;;;;;;0.88;100.00;103226.03;5000180;28;20026;-70
2022/01/19 00:15:35;;;;;;;24.52;10.60;;;;;;;0.84;100.00;103224.25;5001787;28;20034;-69
2022/01/19 00:18:01;;;;;;;19.02;8.38;;;;;;;0.70;100.00;103230.41;5003099;28;20709;-69
2022/01/19 00:20:28;;;;;;;69.57;10.65;;;;;;;0.67;100.00;103234.78;5003217;28;20524;-69
2022/01/19 00:22:53;;;;;;;40.92;9.48;;;;;;;0.50;100.00;103214.50;4998492;28;20072;-69
2022/01/19 00:25:19;;;;;;;29.42;9.13;;;;;;;0.45;100.00;103213.59;5004465;28;20026;-70
2022/01/19 00:27:44;;;;;;;23.15;8.30;;;;;;;0.41;100.00;103204.78;4999190;28;20028;-70
2022/01/19 00:30:10;;;;;;;47.60;9.65;;;;;;;0.43;100.00;103192.44;5004459;28;20434;-69
2022/01/19 00:32:37;;;;;;;20.15;8.98;;;;;;;0.40;100.00;103171.28;5001017;28;20366;-69
2022/01/19 00:35:03;;;;;;;27.88;8.05;;;;;;;0.44;100.00;103154.56;5005162;28;20029;-69
2022/01/19 00:37:29;;;;;;;38.85;10.40;;;;;;;0.35;100.00;103129.88;5003268;28;20038;-69
2022/01/19 00:39:54;;;;;;;20.50;8.60;;;;;;;0.40;100.00;103136.03;5005954;28;20030;-69
2022/01/19 00:42:20;;;;;;;26.05;8.65;;;;;;;0.34;100.00;103128.13;5003486;28;20522;-69
2022/01/19 00:44:45;;;;;;;24.75;7.75;;;;;;;0.16;100.00;103118.38;5003034;28;20500;-69
2022/01/19 00:47:11;;;;;;;23.70;8.15;;;;;;;0.26;100.00;103157.19;5003467;28;20032;-69
2022/01/19 00:49:36;;;;;;;27.23;9.73;;;;;;;0.20;100.00;103144.81;5002110;28;20036;-69
2022/01/19 00:52:02;;;;;;;33.45;9.15;;;;;;;0.12;100.00;103150.06;5005959;28;20033;-69
2022/01/19 00:54:27;;;;;;;28.50;9.05;;;;;;;0.18;100.00;103162.41;5001109;28;20567;-69
2022/01/19 00:56:52;;;;;;;43.30;9.88;;;;;;;0.19;100.00;103158.03;5004612;28;20037;-69
2022/01/19 00:59:18;;;;;;;42.67;9.25;;;;;;;0.12;100.00;103150.06;5003022;28;20084;-70
2022/01/19 01:01:43;;;;;;;28.67;8.38;;;;;;;0.24;100.00;103158.94;5001335;28;20069;-69
2022/01/19 01:04:08;;;;;;;32.85;7.45;;;;;;;0.18;100.00;103141.28;5003721;28;20037;-69
2022/01/19 01:06:34;;;;;;;27.00;8.93;;;;;;;0.28;100.00;103150.09;5002631;28;20064;-69
2022/01/19 01:08:59;;;;;;;33.80;9.60;;;;;;;0.36;100.00;103155.44;5001345;28;20069;-69
2022/01/19 01:11:29;;;;;;;32.22;9.73;;;;;;;0.38;100.00;103136.03;5001855;28;20045;-69
2022/01/19 01:18:56;;;;;;;33.95;9.13;;;;;;;0.58;100.00;103116.69;5002686;28;20098;-69
2022/01/19 01:21:22;;;;;;;27.55;9.45;;;;;;;0.59;100.00;103106.13;5002883;28;20237;-69
2022/01/19 01:23:47;;;;;;;27.67;10.27;;;;;;;0.63;100.00;103106.13;5012449;28;20623;-69
2022/01/19 01:26:12;;;;;;;34.33;10.45;;;;;;;0.62;100.00;103101.72;5010779;28;20057;-70
2022/01/19 01:28:38;;;;;;;44.85;9.93;;;;;;;0.62;100.00;103099.06;4992016;28;20033;-69
2022/01/19 01:31:04;;;;;;;44.15;11.05;;;;;;;0.51;100.00;103084.06;5008120;28;20037;-69
2022/01/19 01:33:29;;;;;;;42.60;11.25;;;;;;;0.62;100.00;103083.22;5007057;28;20080;-70
2022/01/19 01:35:55;;;;;;;46.17;13.07;;;;;;;0.51;100.00;103070.00;5008033;28;20471;-70
2022/01/19 01:38:20;;;;;;;56.70;15.07;;;;;;;0.48;100.00;103046.19;4990040;28;20065;-69
2022/01/19 01:40:45;;;;;;;44.95;14.52;;;;;;;0.47;100.00;103033.88;5004924;28;20152;-69
2022/01/19 01:43:11;;;;;;;52.63;13.02;;;;;;;0.47;100.00;103028.56;5006362;28;20048;-69
2022/01/19 01:45:40;;;;;;;29.60;10.50;;;;;;;0.47;100.00;103015.34;4989779;28;20420;-69
2022/01/19 01:53:27;;;;;;;18.38;9.38;;;;;;;0.26;100.00;103023.28;5004274;28;20116;-69
2022/01/19 01:56:04;;;;;;;33.70;11.88;;;;;;;0.19;100.00;103013.56;5006215;28;20419;-69
2022/01/19 01:58:32;;;;;;;33.35;11.27;;;;;;;0.31;100.00;103022.41;4982856;28;20083;-69
2022/01/19 02:00:58;;;;;;;24.52;10.40;;;;;;;0.36;100.00;103028.56;5004907;28;20127;-69
2022/01/19 02:03:24;;;;;;;28.27;11.57;;;;;;;0.31;100.00;103033.84;5004832;28;20615;-69
2022/01/19 02:06:19;;;;;;;22.50;10.18;;;;;;;0.31;100.00;103036.47;5008542;28;20022;-69
2022/01/19 02:08:55;;;;;;;20.55;9.73;;;;;;;0.26;100.00;103012.72;5006066;28;20059;-69
2022/01/19 02:23:03;;;;;;;31.48;10.75;;;;;;;0.22;100.00;102986.28;5005856;28;20053;-69
2022/01/19 02:25:35;;;;;;;23.52;10.43;;;;;;;0.23;100.00;102986.28;5005562;28;20523;-69
2022/01/19 02:41:37;;;;;;;;;;;;;;;-0.20;100.00;102909.69;5003611;28;20060;-69
2022/01/19 02:44:02;;;;;;;73.90;15.18;;;;;;;-0.28;100.00;102877.09;5006998;28;19931;-69
2022/01/19 02:49:15;;;;;;;30.52;11.95;;;;;;;-0.21;100.00;102900.00;5005620;28;20464;-69
2022/01/19 02:51:44;;;;;;;28.85;11.98;;;;;;;-0.41;100.00;102887.66;5004743;28;20040;-69
2022/01/19 02:54:14;;;;;;;26.88;10.82;;;;;;;-0.38;100.00;102892.91;4985520;28;20021;-69
2022/01/19 02:56:42;;;;;;;40.75;14.27;;;;;;;-0.37;100.00;102878.84;5004195;28;20516;-69
2022/01/19 02:59:16;;;;;;;48.40;15.35;;;;;;;-0.33;100.00;102883.25;5005211;28;20117;-69
2022/01/19 03:10:13;;;;;;;91.00;24.83;;;;;;;0.19;100.00;102844.47;4962859;28;20069;-69
2022/01/19 03:12:39;;;;;;;99.72;24.52;;;;;;;0.39;100.00;102831.22;4979235;28;20069;-69
2022/01/19 03:15:07;;;;;;;58.10;16.92;;;;;;;0.46;100.00;102826.78;4987211;28;20472;-69
2022/01/19 03:17:32;;;;;;;98.05;21.52;;;;;;;0.47;100.00;102817.13;5003345;28;20120;-69
2022/01/19 03:19:57;;;;;;;62.70;17.80;;;;;;;0.45;100.00;102809.19;5004779;28;20080;-69
2022/01/19 03:22:29;;;;;;;80.40;19.42;;;;;;;0.54;100.00;102806.50;5003780;28;20121;-69
2022/01/19 03:24:55;;;;;;;61.92;18.45;;;;;;;0.55;100.00;102791.50;4999869;28;20144;-69
2022/01/19 03:27:20;;;;;;;79.82;20.80;;;;;;;0.72;100.00;102802.91;5007279;28;20164;-70
2022/01/19 03:29:45;;;;;;;64.53;20.77;;;;;;;0.65;100.00;102790.59;5004363;28;20034;-69
2022/01/19 03:32:11;;;;;;;60.88;19.55;;;;;;;0.72;100.00;102786.16;5003585;28;20041;-69
2022/01/19 03:34:39;;;;;;;66.82;20.15;;;;;;;0.74;100.00;102805.53;5017430;28;20315;-69
2022/01/19 03:37:04;;;;;;;33.20;10.82;;;;;;;0.82;100.00;102805.47;4986299;28;20026;-70
2022/01/19 03:39:30;;;;;;;76.10;22.58;;;;;;;0.78;100.00;102787.91;5003695;28;20467;-70
2022/01/19 03:41:56;;;;;;;69.43;21.17;;;;;;;0.77;100.00;102787.00;5004336;28;20116;-70
2022/01/19 03:44:21;;;;;;;79.47;23.80;;;;;;;0.82;100.00;102777.28;5008693;28;20021;-70
2022/01/19 03:47:01;;;;;;;63.65;19.48;;;;;;;0.67;100.00;102770.31;5003006;28;20104;-70
2022/01/19 03:49:29;;;;;;;54.10;19.67;;;;;;;0.76;100.00;102773.81;5006271;28;20034;-70
2022/01/19 03:52:01;;;;;;;54.92;15.20;;;;;;;0.75;100.00;102770.28;5004567;28;20026;-70
2022/01/19 03:54:33;;;;;;;60.90;18.33;;;;;;;0.77;100.00;102765.84;4994367;28;20439;-70
2022/01/19 03:56:58;;;;;;;52.28;17.27;;;;;;;0.84;100.00;102774.63;5019655;28;20022;-70
2022/01/19 03:59:23;;;;;;;48.78;16.15;;;;;;;0.71;100.00;102777.34;4987455;28;20026;-70
2022/01/19 04:01:53;;;;;;;49.13;17.08;;;;;;;0.73;100.00;102772.03;4986895;28;20447;-70
2022/01/19 04:09:31;;;;;;;45.15;16.73;;;;;;;0.61;100.00;102766.84;5003095;28;20064;-70
2022/01/19 04:11:56;;;;;;;38.83;15.95;;;;;;;0.44;100.00;102755.47;5001361;28;20034;-70
2022/01/19 04:14:22;;;;;;;46.05;16.27;;;;;;;0.62;100.00;102772.09;5003658;28;20117;-70
2022/01/19 04:16:53;;;;;;;40.88;16.25;;;;;;;0.64;100.00;102762.41;5000532;28;20534;-70
2022/01/19 04:19:32;;;;;;;45.15;16.10;;;;;;;0.59;100.00;102759.78;5000090;28;20029;-70
2022/01/19 04:21:59;;;;;;;36.85;15.43;;;;;;;0.57;100.00;102756.28;5003068;28;20108;-70
2022/01/19 04:24:25;;;;;;;43.05;17.52;;;;;;;0.69;100.00;102749.16;5002506;28;20029;-70
2022/01/19 04:29:36;;;;;;;56.92;22.27;;;;;;;0.78;100.00;102743.81;5004286;28;20164;-70
2022/01/19 04:32:09;;;;;;;48.13;19.08;;;;;;;0.76;100.00;102745.59;5001753;28;20416;-70
2022/01/19 04:34:36;;;;;;;54.25;19.67;;;;;;;0.71;100.00;102742.09;5003461;28;20037;-70
2022/01/19 05:04:26;;;;;;;59.97;20.70;;;;;;;0.23;100.00;102727.34;5005058;28;20340;-70
2022/01/19 05:07:04;;;;;;;62.20;22.13;;;;;;;0.23;100.00;102726.47;5004346;28;20101;-70
2022/01/19 05:14:45;;;;;;;93.85;30.25;;;;;;;0.62;100.00;102719.22;5006818;28;20439;-70
2022/01/19 05:17:10;;;;;;;53.35;18.67;;;;;;;0.37;100.00;102735.22;5005071;28;20038;-70
2022/01/19 05:19:35;;;;;;;83.18;26.50;;;;;;;0.44;100.00;102730.78;5006963;28;20030;-69
2022/01/19 05:22:00;;;;;;;65.35;26.08;;;;;;;0.35;100.00;102733.47;5006217;28;20121;-70
2022/01/19 05:24:26;;;;;;;61.47;20.00;;;;;;;0.25;100.00;102722.94;5002564;28;20042;-70
2022/01/19 05:26:52;;;;;;;65.57;23.30;;;;;;;0.11;100.00;102715.06;5007552;28;20033;-70
2022/01/19 05:29:17;;;;;;;107.70;33.08;;;;;;;0.20;100.00;102722.06;5001191;28;20040;-70
2022/01/19 05:31:43;;;;;;;74.78;25.23;;;;;;;0.24;100.00;102728.25;5004889;28;20033;-70
2022/01/19 05:34:08;;;;;;;87.90;26.05;;;;;;;0.24;100.00;102723.81;5002646;28;20072;-70
2022/01/19 05:36:33;;;;;;;150.82;43.83;;;;;;;0.68;100.00;102720.94;5005058;28;20033;-69
2022/01/19 05:39:02;;;;;;;99.15;28.77;;;;;;;0.36;100.00;102716.75;5001393;28;20452;-71
2022/01/19 05:41:28;;;;;;;183.02;49.22;;;;;;;0.66;100.00;102720.97;5004858;28;20469;-69
2022/01/19 05:43:53;;;;;;;128.50;30.77;;;;;;;0.62;100.00;102719.22;5002939;28;20033;-70
2022/01/19 05:46:20;;;;;;;140.48;34.03;;;;;;;0.36;100.00;102690.31;5001636;28;20061;-71
2022/01/19 05:48:46;;;;;;;96.00;29.60;;;;;;;0.47;100.00;102706.97;5002637;28;20060;-71
2022/01/19 05:51:11;;;;;;;175.27;48.22;;;;;;;0.67;100.00;102704.22;5000788;28;20423;-71
2022/01/19 05:53:36;;;;;;;131.57;32.85;;;;;;;0.66;100.00;102701.59;4981871;28;20513;-71
2022/01/19 05:56:02;;;;;;;177.65;49.97;;;;;;;0.61;100.00;102704.25;4985123;28;20641;-70
2022/01/19 05:58:27;;;;;;;104.65;29.00;;;;;;;0.48;100.00;102692.00;5007264;28;20025;-70
2022/01/19 06:00:52;;;;;;;128.80;35.53;;;;;;;0.54;100.00;102707.81;5001151;28;20038;-72
2022/01/19 06:03:18;;;;;;;166.85;45.83;;;;;;;0.63;100.00;102694.53;5001749;28;20187;-70
2022/01/19 06:05:44;;;;;;;185.30;54.13;;;;;;;0.88;100.00;102687.34;5002985;28;20556;-69
2022/01/19 06:08:16;;;;;;;114.38;30.30;;;;;;;0.64;100.00;102693.66;4999148;28;20116;-70
2022/01/19 06:10:42;;;;;;;151.82;40.55;;;;;;;0.84;100.00;102701.47;4988140;28;20030;-70
2022/01/19 06:13:07;;;;;;;129.15;33.70;;;;;;;0.72;100.00;102705.06;5006037;28;20495;-70
2022/01/19 06:15:33;;;;;;;105.95;30.30;;;;;;;0.62;100.00;102694.56;5005354;28;20088;-71
2022/01/19 06:17:58;;;;;;;110.75;32.60;;;;;;;0.57;100.00;102678.72;5003260;28;20037;-69
2022/01/19 06:20:23;;;;;;;133.68;39.97;;;;;;;0.68;100.00;102681.28;5003657;28;20037;-70
2022/01/19 06:22:49;;;;;;;78.30;26.33;;;;;;;0.71;100.00;102682.16;5009310;28;20155;-70
2022/01/19 06:25:14;;;;;;;121.95;34.65;;;;;;;0.76;100.00;102683.91;5004971;28;20044;-70
2022/01/19 06:27:40;;;;;;;133.20;40.25;;;;;;;0.93;100.00;102654.69;5008383;28;20057;-69
2022/01/19 06:30:06;;;;;;;112.32;34.67;;;;;;;0.82;100.00;102668.88;5004866;28;20034;-71
2022/01/19 06:32:31;;;;;;;96.13;31.33;;;;;;;0.88;100.00;102670.56;5013439;28;20032;-70
2022/01/19 06:34:56;;;;;;;119.88;38.88;;;;;;;1.08;100.00;102661.59;5004027;28;20038;-69
2022/01/19 06:37:22;;;;;;;96.60;30.08;;;;;;;0.94;100.00;102654.66;5004707;28;20629;-70
2022/01/19 06:39:47;;;;;;;96.88;31.20;;;;;;;0.88;100.00;102652.06;5006594;28;20077;-70
2022/01/19 06:42:12;;;;;;;59.95;20.75;;;;;;;0.91;100.00;102652.03;4986368;28;20369;-70
2022/01/19 06:44:38;;;;;;;78.80;26.35;;;;;;;0.85;100.00;102658.28;5006840;28;20038;-71
2022/01/19 06:47:03;;;;;;;63.60;20.40;;;;;;;0.90;100.00;102637.06;5002878;28;20080;-70
2022/01/19 06:49:29;;;;;;;66.90;24.25;;;;;;;0.97;100.00;102644.06;5003600;28;20528;-72
2022/01/19 06:51:54;;;;;;;81.47;28.45;;;;;;;1.04;100.00;102636.94;5002741;28;20600;-73
2022/01/19 06:54:19;;;;;;;67.05;28.55;;;;;;;1.40;100.00;102637.50;4989215;28;20022;-72
2022/01/19 06:56:44;;;;;;;77.93;27.17;;;;;;;0.91;100.00;102619.44;5002152;28;20192;-73
2022/01/19 06:59:10;;;;;;;79.10;33.55;;;;;;;1.06;100.00;102627.22;4987043;28;20065;-69
2022/01/19 07:01:36;;;;;;;76.45;30.25;;;;;;;1.10;100.00;102621.03;5001702;28;20116;-70
2022/01/19 07:04:03;;;;;;;77.15;35.30;;;;;;;1.31;100.00;102608.47;5001914;28;20061;-72
2022/01/19 07:06:28;;;;;;;91.53;40.10;;;;;;;1.27;100.00;102602.34;5004667;28;20038;-68
2022/01/19 07:08:53;;;;;;;66.65;24.90;;;;;;;1.04;100.00;102615.78;5003464;28;20029;-72
2022/01/19 07:11:19;;;;;;;95.90;38.28;;;;;;;1.07;100.00;102613.09;5002961;28;20057;-72
2022/01/19 07:13:44;;;;;;;63.40;24.52;;;;;;;0.97;100.00;102606.13;5003166;28;20413;-73
2022/01/19 07:16:09;;;;;;;60.45;23.92;;;;;;;1.09;100.00;102613.97;5007538;28;20049;-71
2022/01/19 07:18:34;;;;;;;74.75;29.40;;;;;;;0.96;100.00;102610.56;5004267;28;20057;-74
2022/01/19 07:21:00;;;;;;;79.28;33.33;;;;;;;1.09;100.00;102605.13;5004799;28;20109;-72
2022/01/19 07:23:25;;;;;;;79.68;33.90;;;;;;;1.23;100.00;102600.59;5005348;28;20030;-71
2022/01/19 07:25:51;;;;;;;62.10;22.98;;;;;;;1.16;100.00;102598.91;5009631;28;20120;-71
2022/01/19 07:28:16;;;;;;;73.18;28.35;;;;;;;1.27;100.00;102598.78;4986928;28;20479;-71
2022/01/19 07:30:41;;;;;;;64.20;23.65;;;;;;;1.17;100.00;102595.38;5004329;28;20068;-71
2022/01/19 07:33:07;;;;;;;66.43;25.05;;;;;;;0.96;100.00;102588.50;5006525;28;20105;-71
2022/01/19 07:35:32;;;;;;;66.43;25.60;;;;;;;1.12;100.00;102582.19;4988391;28;20034;-71
2022/01/19 07:37:58;;;;;;;65.47;25.05;;;;;;;1.34;100.00;102592.56;5006612;28;20087;-71
2022/01/19 07:40:24;;;;;;;78.78;32.65;;;;;;;1.46;100.00;102604.78;5001063;28;22451;-70
2022/01/19 07:42:50;;;;;;;68.75;28.40;;;;;;;1.37;100.00;102604.88;5001407;28;20573;-72
2022/01/19 07:45:15;;;;;;;82.00;29.33;;;;;;;1.16;100.00;102606.84;4989275;28;20497;-72
2022/01/19 07:47:41;;;;;;;70.45;28.63;;;;;;;1.09;100.00;102602.50;5021886;23;20049;-72
2022/01/19 07:50:07;;;;;;;69.80;24.00;;;;;;;1.06;100.00;102607.84;5023621;28;20466;-72
2022/01/19 07:52:32;;;;;;;58.08;22.08;;;;;;;1.15;100.00;102598.03;5019644;28;20040;-73
2022/01/19 07:54:57;;;;;;;89.53;40.15;;;;;;;1.43;100.00;102583.63;5025036;28;20037;-70
2022/01/19 07:57:23;;;;;;;63.08;22.98;;;;;;;1.08;100.00;102588.41;5022387;28;20033;-73
2022/01/19 07:59:48;;;;;;;66.72;25.67;;;;;;;1.18;100.00;102584.78;5022545;28;20933;-73
2022/01/19 08:02:13;;;;;;;61.38;26.13;;;;;;;1.26;100.00;102594.41;5022090;28;20030;-72
2022/01/19 08:04:40;;;;;;;68.97;27.42;;;;;;;1.12;100.00;102582.19;5004592;28;20029;-72
2022/01/19 08:07:05;;;;;;;61.40;23.52;;;;;;;1.09;100.00;102589.28;5023544;28;20060;-72
2022/01/19 08:09:31;;;;;;;50.65;19.77;;;;;;;0.98;100.00;102561.19;5001081;28;20033;-72
2022/01/19 08:11:57;;;;;;;59.35;21.42;;;;;;;1.20;100.00;102582.97;5025975;28;20041;-73
2022/01/19 08:14:24;;;;;;;48.60;21.55;;;;;;;1.37;100.00;102584.59;5006237;28;20052;-72
2022/01/19 08:16:50;;;;;;;64.38;26.23;;;;;;;1.33;100.00;102578.44;5024189;28;20030;-72
2022/01/19 08:19:15;;;;;;;57.45;21.73;;;;;;;1.34;100.00;102571.38;5023014;28;20483;-73
2022/01/19 08:21:41;;;;;;;61.58;24.73;;;;;;;1.38;100.00;102573.09;5021625;28;20087;-73
2022/01/19 08:24:06;;;;;;;54.63;20.80;;;;;;;1.36;100.00;102574.88;5020368;28;20091;-73
2022/01/19 08:26:32;;;;;;;49.03;18.65;;;;;;;1.29;100.00;102582.03;5021852;28;20071;-73
2022/01/19 08:28:57;;;;;;;49.15;18.98;;;;;;;1.36;100.00;102580.19;5022621;28;20079;-73
2022/01/19 08:31:22;;;;;;;73.88;33.17;;;;;;;1.53;100.00;102576.44;5020778;28;20064;-72
2022/01/19 08:33:47;;;;;;;57.42;21.75;;;;;;;1.30;100.00;102570.53;5023693;28;20112;-73
2022/01/19 08:36:14;;;;;;;64.15;25.92;;;;;;;1.49;100.00;102560.59;5023633;28;20040;-72
2022/01/19 08:38:41;;;;;;;61.40;25.20;;;;;;;1.53;100.00;102548.22;5021616;28;20036;-73
2022/01/19 08:41:07;;;;;;;64.90;23.48;;;;;;;1.50;100.00;102550.91;5005321;28;20598;-73
2022/01/19 08:43:32;;;;;;;48.40;20.33;;;;;;;1.31;100.00;102556.44;5021252;28;20045;-72
2022/01/19 08:45:58;;;;;;;58.70;22.83;;;;;;;1.62;100.00;102547.22;5006090;28;20112;-72
2022/01/19 08:48:24;;;;;;;48.35;19.80;;;;;;;1.36;100.00;102537.84;5004544;28;20033;-72
2022/01/19 08:50:50;;;;;;;59.72;27.02;;;;;;;1.40;100.00;102542.19;5022724;28;20021;-73
2022/01/19 08:53:15;;;;;;;48.58;20.33;;;;;;;1.71;100.00;102547.13;5005152;28;20075;-73
2022/01/19 08:55:40;;;;;;;52.88;20.45;;;;;;;1.68;100.00;102536.56;5020741;28;20040;-72
2022/01/19 08:58:07;;;;;;;73.30;31.88;;;;;;;2.02;100.00;102540.50;5005423;28;20043;-72
2022/01/19 09:00:33;;;;;;;48.75;19.38;;;;;;;1.71;100.00;102525.94;5021903;28;20025;-72
2022/01/19 09:02:58;;;;;;;42.03;15.80;;;;;;;1.75;100.00;102527.63;5021455;28;20075;-73
2022/01/19 09:05:23;;;;;;;50.28;19.60;;;;;;;1.48;100.00;102526.22;5003634;28;20068;-73
2022/01/19 09:07:49;;;;;;;59.00;21.45;;;;;;;1.56;100.00;102526.13;5019707;28;20029;-74
2022/01/19 09:10:15;;;;;;;50.15;18.88;;;;;;;1.66;100.00;102519.81;5003680;28;20443;-72
2022/01/19 09:12:42;;;;;;;48.85;21.10;;;;;;;1.55;100.00;102522.59;5020704;28;20026;-73
2022/01/19 09:15:09;;;;;;;55.08;21.77;;;;;;;1.61;100.00;102503.09;5005499;28;20037;-73
2022/01/19 09:17:34;;;;;;;47.92;19.85;;;;;;;1.64;100.00;102503.06;5020544;28;20036;-73
2022/01/19 09:20:00;;;;;;;58.35;31.98;;;;;;;1.94;100.00;102503.53;5022319;28;20029;-72
2022/01/19 09:22:26;;;;;;;42.28;17.80;;;;;;;1.79;100.00;102486.09;5018557;28;20368;-74
2022/01/19 09:24:51;;;;;;;45.13;19.35;;;;;;;1.80;100.00;102501.94;5017202;28;20491;-74
2022/01/19 09:27:18;;;;;;;53.67;22.27;;;;;;;1.71;100.00;102487.97;5019006;28;20031;-72
2022/01/19 09:29:45;;;;;;;46.33;19.52;;;;;;;1.80;100.00;102499.28;5022985;28;20100;-73
2022/01/19 09:32:11;;;;;;;42.25;16.65;;;;;;;2.00;100.00;102500.75;5002864;28;20076;-74
2022/01/19 09:34:40;;;;;;;50.65;24.08;;;;;;;2.17;100.00;102487.25;5005792;28;20125;-73
2022/01/19 09:37:05;;;;;;;39.55;18.15;;;;;;;2.00;100.00;102478.72;5004463;28;20079;-74
2022/01/19 09:39:30;;;;;;;38.53;16.75;;;;;;;2.05;100.00;102471.56;5003018;28;20025;-73
2022/01/19 09:41:56;;;;;;;39.58;16.00;;;;;;;1.99;100.00;102476.97;5002234;28;20033;-75
2022/01/19 09:44:23;;;;;;;51.88;20.15;;;;;;;2.06;100.00;102479.47;5024700;28;20025;-72
2022/01/19 09:46:49;;;;;;;43.80;17.58;;;;;;;2.03;100.00;102479.53;5024945;28;20021;-73
2022/01/19 09:49:17;;;;;;;42.30;19.05;;;;;;;2.19;100.00;102479.31;5007795;28;20371;-72
2022/01/19 09:51:44;;;;;;;47.92;21.50;;;;;;;2.22;100.00;102466.00;5008164;28;20036;-72
2022/01/19 09:54:14;;;;;;;35.38;16.23;;;;;;;2.11;100.00;102466.19;5026014;28;20021;-73
2022/01/19 09:56:40;;;;;;;39.35;17.77;;;;;;;2.16;100.00;102448.41;5023744;28;20080;-73
2022/01/19 09:59:07;;;;;;;42.15;18.48;;;;;;;2.11;100.00;102439.69;5026150;28;20029;-73
2022/01/19 10:01:33;;;;;;;43.30;20.52;;;;;;;2.28;100.00;102449.13;5007423;28;20033;-71
2022/01/19 10:03:58;;;;;;;36.28;14.40;;;;;;;2.28;100.00;102449.97;5007299;28;20117;-73
2022/01/19 10:06:24;;;;;;;39.67;18.45;;;;;;;2.34;100.00;102455.19;5022388;28;20857;-72
2022/01/19 10:08:54;;;;;;;43.90;18.17;;;;;;;2.50;100.00;102452.28;5023730;28;20037;-71
2022/01/19 10:17:02;;;;;;;36.88;15.88;;;;;;;2.41;100.00;102440.03;5018878;28;20115;-73
2022/01/19 10:19:35;;;;;;;42.95;21.02;;;;;;;2.50;100.00;102439.00;5022913;28;20029;-70
2022/01/19 10:22:25;;;;;;;35.22;17.88;;;;;;;2.48;100.00;102443.47;5025575;28;20115;-71
2022/01/19 10:24:57;;;;;;;46.80;19.92;;;;;;;2.58;100.00;102439.72;5007593;28;20087;-73
2022/01/19 10:27:28;;;;;;;42.47;16.73;;;;;;;2.57;100.00;102442.41;5023716;28;20033;-72
2022/01/19 10:30:16;;;;;;;39.08;16.50;;;;;;;2.49;100.00;102419.56;5022479;28;20029;-74
2022/01/19 10:32:56;;;;;;;36.40;17.50;;;;;;;2.51;100.00;102414.25;5022684;28;20487;-73
2022/01/19 10:35:35;;;;;;;36.65;15.45;;;;;;;2.58;100.00;102402.59;5023830;28;20033;-73
2022/01/19 10:38:19;;;;;;;38.55;17.73;;;;;;;2.61;100.00;102413.16;5008690;28;20036;-72
2022/01/19 10:41:07;;;;;;;33.60;14.75;;;;;;;2.71;100.00;102408.53;5023783;28;20365;-73
2022/01/19 10:43:59;;;;;;;43.42;20.88;;;;;;;2.77;100.00;102418.19;5006985;28;20337;-71
2022/01/19 10:46:26;;;;;;;39.85;16.98;;;;;;;2.80;100.00;102415.44;5020564;28;20068;-72
2022/01/19 10:49:04;;;;;;;43.22;19.63;;;;;;;2.66;100.00;102392.72;5021560;28;20487;-72
2022/01/19 10:51:43;;;;;;;44.53;19.88;;;;;;;2.76;100.00;102400.53;5025471;28;20475;-72
2022/01/19 10:54:15;;;;;;;38.05;18.83;;;;;;;2.79;100.00;102409.28;5023190;28;20088;-72
2022/01/19 10:56:42;;;;;;;41.28;19.38;;;;;;;2.83;100.00;102405.66;5022643;28;20025;-71
2022/01/19 10:59:10;;;;;;;40.47;15.98;;;;;;;2.86;100.00;102399.41;5025543;28;20036;-73
2022/01/19 11:01:45;;;;;;;43.15;19.52;;;;;;;2.88;100.00;102394.94;5023732;28;20033;-71
2022/01/19 11:04:40;;;;;;;37.10;18.25;;;;;;;2.89;100.00;102382.56;5036811;28;20491;-71
2022/01/19 11:07:11;;;;;;;41.45;19.27;;;;;;;2.85;100.00;102374.69;5022433;28;20049;-71
2022/01/19 11:09:45;;;;;;;40.50;19.02;;;;;;;2.99;100.00;102369.06;5022336;28;20643;-72
2022/01/19 11:12:15;;;;;;;41.97;21.15;;;;;;;2.79;100.00;102352.69;4998491;28;20466;-72
2022/01/19 11:14:41;;;;;;;42.60;20.67;;;;;;;2.91;100.00;102356.88;5017928;28;20250;-74
2022/01/19 11:17:08;;;;;;;45.58;20.63;;;;;;;2.94;100.00;102357.69;5019744;28;20508;-71
2022/01/19 11:19:43;;;;;;;38.60;17.45;;;;;;;2.93;100.00;102353.28;5020676;28;20037;-72
2022/01/19 11:22:30;;;;;;;43.28;22.20;;;;;;;3.11;100.00;102357.31;5016194;28;20067;-70
2022/01/19 11:25:10;;;;;;;43.90;23.88;;;;;;;3.19;100.00;102348.28;5014031;28;20437;-69
2022/01/19 11:27:40;;;;;;;39.20;17.10;;;;;;;2.87;100.00;102339.28;5012281;28;20053;-73
2022/01/19 11:30:14;;;;;;;39.88;18.77;;;;;;;2.85;100.00;102336.63;5020714;28;20068;-71
2022/01/19 11:32:40;;;;;;;41.33;18.58;;;;;;;2.86;100.00;102330.44;5018223;28;20029;-73
2022/01/19 11:35:06;;;;;;;41.10;18.08;;;;;;;2.88;100.00;102318.00;5021309;28;20036;-74
2022/01/19 11:37:37;;;;;;;57.05;29.38;;;;;;;3.13;100.00;102310.38;5015093;28;20060;-74
2022/01/19 11:40:07;;;;;;;38.97;17.00;;;;;;;2.87;100.00;102291.53;5015452;28;20030;-72
2022/01/19 11:42:33;;;;;;;43.08;18.67;;;;;;;2.83;100.00;102310.16;5015970;28;20029;-73
2022/01/19 11:44:59;;;;;;;49.47;23.23;;;;;;;2.76;100.00;102300.59;5017809;28;20033;-72
2022/01/19 11:47:29;;;;;;;47.00;22.25;;;;;;;2.85;100.00;102297.75;5012441;28;20465;-73
2022/01/19 11:50:05;;;;;;;46.30;19.77;;;;;;;3.08;100.00;102298.09;5029707;28;20480;-71
2022/01/19 11:52:38;;;;;;;42.15;20.88;;;;;;;3.14;100.00;102295.31;5012263;28;20034;-71
2022/01/19 11:55:12;;;;;;;43.85;18.98;;;;;;;2.90;100.00;102272.88;5023263;28;20084;-73
2022/01/19 11:57:37;;;;;;;45.33;18.35;;;;;;;2.95;100.00;102269.22;5015588;28;20265;-74
2022/01/19 12:00:22;;;;;;;50.00;21.27;;;;;;;3.00;100.00;102258.50;5026046;28;20037;-72
2022/01/19 12:02:52;;;;;;;41.83;18.10;;;;;;;3.03;100.00;102270.84;5026421;28;20029;-71
2022/01/19 12:05:30;;;;;;;39.50;19.08;;;;;;;2.95;100.00;102258.59;5013855;28;20034;-73
2022/01/19 12:07:58;;;;;;;48.70;22.70;;;;;;;2.96;100.00;102248.84;5021262;28;20065;-74
2022/01/19 12:10:30;;;;;;;51.55;23.95;;;;;;;3.17;100.00;102250.13;5015543;28;20060;-71
2022/01/19 12:13:29;;;;;;;45.30;19.02;;;;;;;3.09;100.00;102246.78;5017548;28;20044;-73
2022/01/19 12:16:01;;;;;;;40.67;19.90;;;;;;;3.15;100.00;102244.88;5017273;28;20456;-74
2022/01/19 12:18:54;;;;;;;37.08;16.48;;;;;;;3.09;100.00;102230.84;5015244;28;20037;-72
2022/01/19 12:21:32;;;;;;;48.20;19.35;;;;;;;3.07;100.00;102220.28;5018269;28;20446;-72
2022/01/19 12:24:29;;;;;;;44.03;17.75;;;;;;;3.10;100.00;102221.97;5018323;28;20040;-71
2022/01/19 12:26:56;;;;;;;40.95;16.10;;;;;;;3.10;100.00;102220.22;5033611;28;20025;-72
2022/01/19 12:29:34;;;;;;;55.53;27.00;;;;;;;3.27;100.00;102222.47;5016966;28;20022;-72
2022/01/19 12:32:06;;;;;;;51.72;24.50;;;;;;;3.34;100.00;102227.59;5018964;28;20036;-70
2022/01/19 12:34:42;;;;;;;47.88;20.02;;;;;;;3.24;100.00;102219.88;5023886;28;20336;-73
2022/01/19 12:37:07;;;;;;;55.35;23.38;;;;;;;3.13;100.00;102198.03;5017330;28;20147;-72
2022/01/19 12:39:35;;;;;;;51.33;25.60;;;;;;;3.39;100.00;102200.03;5027190;28;20143;-71
2022/01/19 12:42:05;;;;;;;41.35;18.02;;;;;;;3.25;100.00;102196.84;5014476;28;20029;-74
2022/01/19 12:44:43;;;;;;;39.92;18.23;;;;;;;3.45;100.00;102183.94;5027870;28;20044;-74
2022/01/19 12:47:27;;;;;;;58.03;25.13;;;;;;;3.52;100.00;102187.31;5012290;28;20060;-73